sensor_id;sensor_type;location;lat;lon;timestamp;temperature;humidity
35700;DHT22;21818;51.078;12.108;2023-07-08T00:00:22;19.70;89.10
35700;DHT22;21818;51.078;12.108;2023-07-08T00:02:47;19.70;88.80
35700;DHT22;21818;51.078;12.108;2023-07-08T00:05:15;19.80;88.70
35700;DHT22;21818;51.078;12.108;2023-07-08T00:07:42;19.70;88.40
35700;DHT22;21818;51.078;12.108;2023-07-08T00:10:25;19.60;88.80
35700;DHT22;21818;51.078;12.108;2023-07-08T00:12:52;19.60;89.00
35700;DHT22;21818;51.078;12.108;2023-07-08T00:15:23;19.60;89.10
35700;DHT22;21818;51.078;12.108;2023-07-08T00:17:49;19.70;88.90
35700;DHT22;21818;51.078;12.108;2023-07-08T00:20:23;19.70;88.90
35700;DHT22;21818;51.078;12.108;2023-07-08T00:22:54;19.70;88.60
35700;DHT22;21818;51.078;12.108;2023-07-08T00:25:20;19.60;88.90
35700;DHT22;21818;51.078;12.108;2023-07-08T00:27:46;19.40;88.80
35700;DHT22;21818;51.078;12.108;2023-07-08T00:30:26;19.20;89.10
35700;DHT22;21818;51.078;12.108;2023-07-08T00:32:53;19.10;89.30
35700;DHT22;21818;51.078;12.108;2023-07-08T00:35:24;19.00;89.70
35700;DHT22;21818;51.078;12.108;2023-07-08T00:37:52;19.00;89.60
35700;DHT22;21818;51.078;12.108;2023-07-08T00:40:30;19.00;89.90
35700;DHT22;21818;51.078;12.108;2023-07-08T00:42:59;19.10;89.40
35700;DHT22;21818;51.078;12.108;2023-07-08T00:48:16;19.10;89.40
35700;DHT22;21818;51.078;12.108;2023-07-08T00:50:42;19.10;89.30
35700;DHT22;21818;51.078;12.108;2023-07-08T00:53:28;19.10;89.00
35700;DHT22;21818;51.078;12.108;2023-07-08T00:56:12;19.10;88.60
35700;DHT22;21818;51.078;12.108;2023-07-08T00:59:32;19.10;88.80
35700;DHT22;21818;51.078;12.108;2023-07-08T01:01:58;18.80;89.10
35700;DHT22;21818;51.078;12.108;2023-07-08T01:07:16;18.70;89.30
35700;DHT22;21818;51.078;12.108;2023-07-08T01:09:50;18.70;89.10
35700;DHT22;21818;51.078;12.108;2023-07-08T01:12:20;18.60;89.20
35700;DHT22;21818;51.078;12.108;2023-07-08T01:14:47;18.70;89.10
35700;DHT22;21818;51.078;12.108;2023-07-08T01:17:13;18.60;89.00
35700;DHT22;21818;51.078;12.108;2023-07-08T01:19:43;18.40;89.30
35700;DHT22;21818;51.078;12.108;2023-07-08T01:22:09;18.30;89.60
35700;DHT22;21818;51.078;12.108;2023-07-08T01:24:37;18.20;90.00
35700;DHT22;21818;51.078;12.108;2023-07-08T01:27:06;18.20;90.00
35700;DHT22;21818;51.078;12.108;2023-07-08T01:29:33;18.10;90.00
35700;DHT22;21818;51.078;12.108;2023-07-08T01:31:59;18.10;90.10
35700;DHT22;21818;51.078;12.108;2023-07-08T01:34:28;18.20;90.00
35700;DHT22;21818;51.078;12.108;2023-07-08T01:36:56;18.20;89.90
35700;DHT22;21818;51.078;12.108;2023-07-08T01:39:25;18.20;89.90
35700;DHT22;21818;51.078;12.108;2023-07-08T01:41:51;18.10;90.00
35700;DHT22;21818;51.078;12.108;2023-07-08T01:44:30;18.00;90.20
35700;DHT22;21818;51.078;12.108;2023-07-08T01:47:11;17.90;90.20
35700;DHT22;21818;51.078;12.108;2023-07-08T01:49:40;17.90;90.20
35700;DHT22;21818;51.078;12.108;2023-07-08T01:52:07;17.80;90.30
35700;DHT22;21818;51.078;12.108;2023-07-08T01:54:34;17.90;90.40
35700;DHT22;21818;51.078;12.108;2023-07-08T01:56:59;17.90;90.30
35700;DHT22;21818;51.078;12.108;2023-07-08T01:59:26;17.90;90.30
35700;DHT22;21818;51.078;12.108;2023-07-08T02:01:52;17.90;90.30
35700;DHT22;21818;51.078;12.108;2023-07-08T02:04:24;17.90;90.40
35700;DHT22;21818;51.078;12.108;2023-07-08T02:06:54;17.60;90.80
35700;DHT22;21818;51.078;12.108;2023-07-08T02:09:21;17.30;91.80
35700;DHT22;21818;51.078;12.108;2023-07-08T02:11:46;17.00;92.40
35700;DHT22;21818;51.078;12.108;2023-07-08T02:14:12;16.80;92.70
35700;DHT22;21818;51.078;12.108;2023-07-08T02:16:37;16.80;93.10
35700;DHT22;21818;51.078;12.108;2023-07-08T02:19:03;16.70;93.30
35700;DHT22;21818;51.078;12.108;2023-07-08T02:21:28;16.70;93.60
35700;DHT22;21818;51.078;12.108;2023-07-08T02:23:57;16.70;93.50
35700;DHT22;21818;51.078;12.108;2023-07-08T02:26:23;16.80;93.40
35700;DHT22;21818;51.078;12.108;2023-07-08T02:28:49;16.80;93.70
35700;DHT22;21818;51.078;12.108;2023-07-08T02:31:15;17.00;93.50
35700;DHT22;21818;51.078;12.108;2023-07-08T02:33:40;17.20;93.20
35700;DHT22;21818;51.078;12.108;2023-07-08T02:36:06;17.50;93.00
35700;DHT22;21818;51.078;12.108;2023-07-08T02:38:32;17.70;92.60
35700;DHT22;21818;51.078;12.108;2023-07-08T02:40:58;17.60;92.50
35700;DHT22;21818;51.078;12.108;2023-07-08T02:43:23;17.50;92.70
35700;DHT22;21818;51.078;12.108;2023-07-08T02:45:50;17.50;92.80
35700;DHT22;21818;51.078;12.108;2023-07-08T02:48:17;17.70;92.60
35700;DHT22;21818;51.078;12.108;2023-07-08T02:50:43;17.80;92.40
35700;DHT22;21818;51.078;12.108;2023-07-08T02:53:09;17.90;92.10
35700;DHT22;21818;51.078;12.108;2023-07-08T02:55:34;17.90;91.90
35700;DHT22;21818;51.078;12.108;2023-07-08T02:58:00;17.80;92.00
35700;DHT22;21818;51.078;12.108;2023-07-08T03:00:25;17.90;91.80
35700;DHT22;21818;51.078;12.108;2023-07-08T03:02:51;17.70;92.00
35700;DHT22;21818;51.078;12.108;2023-07-08T03:05:17;17.70;91.90
35700;DHT22;21818;51.078;12.108;2023-07-08T03:07:42;17.60;92.10
35700;DHT22;21818;51.078;12.108;2023-07-08T03:10:08;17.70;91.90
35700;DHT22;21818;51.078;12.108;2023-07-08T03:12:34;17.70;91.90
35700;DHT22;21818;51.078;12.108;2023-07-08T03:15:00;17.80;91.70
35700;DHT22;21818;51.078;12.108;2023-07-08T03:17:25;17.80;91.50
35700;DHT22;21818;51.078;12.108;2023-07-08T03:19:51;17.70;91.50
35700;DHT22;21818;51.078;12.108;2023-07-08T03:22:17;17.50;91.30
35700;DHT22;21818;51.078;12.108;2023-07-08T03:24:43;17.20;91.40
35700;DHT22;21818;51.078;12.108;2023-07-08T03:27:13;17.10;91.60
35700;DHT22;21818;51.078;12.108;2023-07-08T03:29:39;17.00;91.80
35700;DHT22;21818;51.078;12.108;2023-07-08T03:32:06;17.20;91.80
35700;DHT22;21818;51.078;12.108;2023-07-08T03:34:33;17.30;91.60
35700;DHT22;21818;51.078;12.108;2023-07-08T03:36:58;17.30;91.60
35700;DHT22;21818;51.078;12.108;2023-07-08T03:39:24;17.30;91.60
35700;DHT22;21818;51.078;12.108;2023-07-08T03:41:51;17.30;91.50
35700;DHT22;21818;51.078;12.108;2023-07-08T03:44:17;17.30;91.60
35700;DHT22;21818;51.078;12.108;2023-07-08T03:46:44;17.40;91.50
35700;DHT22;21818;51.078;12.108;2023-07-08T03:49:10;17.40;91.50
35700;DHT22;21818;51.078;12.108;2023-07-08T03:51:38;17.40;91.50
35700;DHT22;21818;51.078;12.108;2023-07-08T03:54:05;17.30;91.60
35700;DHT22;21818;51.078;12.108;2023-07-08T03:56:31;17.30;91.70
35700;DHT22;21818;51.078;12.108;2023-07-08T03:58:56;17.40;91.70
35700;DHT22;21818;51.078;12.108;2023-07-08T04:01:23;17.50;91.50
35700;DHT22;21818;51.078;12.108;2023-07-08T04:03:52;17.50;91.40
35700;DHT22;21818;51.078;12.108;2023-07-08T04:06:18;17.50;91.40
35700;DHT22;21818;51.078;12.108;2023-07-08T04:08:44;17.60;91.30
35700;DHT22;21818;51.078;12.108;2023-07-08T04:11:12;17.60;91.30
35700;DHT22;21818;51.078;12.108;2023-07-08T04:13:38;17.50;91.50
35700;DHT22;21818;51.078;12.108;2023-07-08T04:16:05;17.40;91.60
35700;DHT22;21818;51.078;12.108;2023-07-08T04:18:31;17.30;91.80
35700;DHT22;21818;51.078;12.108;2023-07-08T04:20:57;17.40;91.60
35700;DHT22;21818;51.078;12.108;2023-07-08T04:23:22;17.40;91.70
35700;DHT22;21818;51.078;12.108;2023-07-08T04:25:50;17.40;91.80
35700;DHT22;21818;51.078;12.108;2023-07-08T04:28:17;17.50;91.60
35700;DHT22;21818;51.078;12.108;2023-07-08T04:30:43;17.60;91.60
35700;DHT22;21818;51.078;12.108;2023-07-08T04:33:13;17.70;91.60
35700;DHT22;21818;51.078;12.108;2023-07-08T04:35:40;17.90;91.40
35700;DHT22;21818;51.078;12.108;2023-07-08T04:38:07;17.80;91.40
35700;DHT22;21818;51.078;12.108;2023-07-08T04:40:37;17.70;91.60
35700;DHT22;21818;51.078;12.108;2023-07-08T04:43:08;17.50;91.80
35700;DHT22;21818;51.078;12.108;2023-07-08T04:45:34;17.50;91.90
35700;DHT22;21818;51.078;12.108;2023-07-08T04:48:00;17.80;91.80
35700;DHT22;21818;51.078;12.108;2023-07-08T04:50:25;17.80;91.70
35700;DHT22;21818;51.078;12.108;2023-07-08T04:52:51;17.90;91.60
35700;DHT22;21818;51.078;12.108;2023-07-08T04:55:19;18.00;91.60
35700;DHT22;21818;51.078;12.108;2023-07-08T04:57:44;18.00;91.60
35700;DHT22;21818;51.078;12.108;2023-07-08T05:00:16;18.10;91.60
35700;DHT22;21818;51.078;12.108;2023-07-08T05:02:42;18.10;91.70
35700;DHT22;21818;51.078;12.108;2023-07-08T05:05:08;18.20;91.70
35700;DHT22;21818;51.078;12.108;2023-07-08T05:07:33;18.20;91.80
35700;DHT22;21818;51.078;12.108;2023-07-08T05:09:59;18.20;92.00
35700;DHT22;21818;51.078;12.108;2023-07-08T05:12:26;18.20;92.00
35700;DHT22;21818;51.078;12.108;2023-07-08T05:14:51;18.20;92.10
35700;DHT22;21818;51.078;12.108;2023-07-08T05:17:17;18.30;92.00
35700;DHT22;21818;51.078;12.108;2023-07-08T05:19:42;18.50;91.80
35700;DHT22;21818;51.078;12.108;2023-07-08T05:22:10;18.60;91.70
35700;DHT22;21818;51.078;12.108;2023-07-08T05:24:36;18.70;91.70
35700;DHT22;21818;51.078;12.108;2023-07-08T05:27:02;18.70;91.80
35700;DHT22;21818;51.078;12.108;2023-07-08T05:29:28;18.80;91.70
35700;DHT22;21818;51.078;12.108;2023-07-08T05:31:54;19.00;91.60
35700;DHT22;21818;51.078;12.108;2023-07-08T05:34:19;19.00;91.60
35700;DHT22;21818;51.078;12.108;2023-07-08T05:36:45;19.00;91.70
35700;DHT22;21818;51.078;12.108;2023-07-08T05:39:10;19.10;91.70
35700;DHT22;21818;51.078;12.108;2023-07-08T05:41:36;19.20;91.60
35700;DHT22;21818;51.078;12.108;2023-07-08T05:44:02;19.30;91.50
35700;DHT22;21818;51.078;12.108;2023-07-08T05:46:27;19.40;91.50
35700;DHT22;21818;51.078;12.108;2023-07-08T05:48:53;19.80;91.20
35700;DHT22;21818;51.078;12.108;2023-07-08T05:51:19;20.30;90.70
35700;DHT22;21818;51.078;12.108;2023-07-08T05:53:45;20.60;90.30
35700;DHT22;21818;51.078;12.108;2023-07-08T05:56:10;20.80;90.00
35700;DHT22;21818;51.078;12.108;2023-07-08T05:58:36;21.00;89.70
35700;DHT22;21818;51.078;12.108;2023-07-08T06:01:01;21.10;89.30
35700;DHT22;21818;51.078;12.108;2023-07-08T06:03:27;21.20;89.00
35700;DHT22;21818;51.078;12.108;2023-07-08T06:05:53;21.30;88.70
35700;DHT22;21818;51.078;12.108;2023-07-08T06:08:19;21.30;88.40
35700;DHT22;21818;51.078;12.108;2023-07-08T06:10:45;21.40;88.20
35700;DHT22;21818;51.078;12.108;2023-07-08T06:13:11;21.40;87.90
35700;DHT22;21818;51.078;12.108;2023-07-08T06:15:38;21.50;87.70
35700;DHT22;21818;51.078;12.108;2023-07-08T06:18:03;21.50;87.50
35700;DHT22;21818;51.078;12.108;2023-07-08T06:20:29;21.60;87.30
35700;DHT22;21818;51.078;12.108;2023-07-08T06:22:55;21.60;87.10
35700;DHT22;21818;51.078;12.108;2023-07-08T06:25:21;21.70;86.90
35700;DHT22;21818;51.078;12.108;2023-07-08T06:27:46;21.70;86.70
35700;DHT22;21818;51.078;12.108;2023-07-08T06:30:12;21.70;87.10
35700;DHT22;21818;51.078;12.108;2023-07-08T06:32:38;21.70;86.40
35700;DHT22;21818;51.078;12.108;2023-07-08T06:35:04;21.70;86.20
35700;DHT22;21818;51.078;12.108;2023-07-08T06:37:30;21.80;86.10
35700;DHT22;21818;51.078;12.108;2023-07-08T06:39:55;21.80;85.90
35700;DHT22;21818;51.078;12.108;2023-07-08T06:42:21;21.90;85.80
35700;DHT22;21818;51.078;12.108;2023-07-08T06:44:46;21.90;85.70
35700;DHT22;21818;51.078;12.108;2023-07-08T06:47:20;21.90;85.50
35700;DHT22;21818;51.078;12.108;2023-07-08T06:49:46;22.00;85.40
35700;DHT22;21818;51.078;12.108;2023-07-08T06:52:12;22.00;85.30
35700;DHT22;21818;51.078;12.108;2023-07-08T06:54:38;22.00;85.10
35700;DHT22;21818;51.078;12.108;2023-07-08T06:57:04;22.00;85.00
35700;DHT22;21818;51.078;12.108;2023-07-08T06:59:30;22.00;84.90
35700;DHT22;21818;51.078;12.108;2023-07-08T07:01:55;22.10;84.70
35700;DHT22;21818;51.078;12.108;2023-07-08T07:04:21;22.10;84.60
35700;DHT22;21818;51.078;12.108;2023-07-08T07:06:47;22.10;84.50
35700;DHT22;21818;51.078;12.108;2023-07-08T07:09:12;22.10;84.40
35700;DHT22;21818;51.078;12.108;2023-07-08T07:11:38;22.20;84.30
35700;DHT22;21818;51.078;12.108;2023-07-08T07:14:03;22.20;84.20
35700;DHT22;21818;51.078;12.108;2023-07-08T07:16:29;22.20;84.10
35700;DHT22;21818;51.078;12.108;2023-07-08T07:18:54;22.20;84.00
35700;DHT22;21818;51.078;12.108;2023-07-08T07:21:20;22.30;83.90
35700;DHT22;21818;51.078;12.108;2023-07-08T07:23:46;22.30;83.80
35700;DHT22;21818;51.078;12.108;2023-07-08T07:26:11;22.30;83.70
35700;DHT22;21818;51.078;12.108;2023-07-08T07:28:37;22.30;83.50
35700;DHT22;21818;51.078;12.108;2023-07-08T07:31:03;22.30;83.40
35700;DHT22;21818;51.078;12.108;2023-07-08T07:33:30;22.40;83.40
35700;DHT22;21818;51.078;12.108;2023-07-08T07:35:56;22.40;83.30
35700;DHT22;21818;51.078;12.108;2023-07-08T07:38:22;22.40;83.20
35700;DHT22;21818;51.078;12.108;2023-07-08T07:40:52;22.40;83.00
35700;DHT22;21818;51.078;12.108;2023-07-08T07:43:19;22.40;82.90
35700;DHT22;21818;51.078;12.108;2023-07-08T07:45:44;22.40;82.80
35700;DHT22;21818;51.078;12.108;2023-07-08T07:48:10;22.50;82.80
35700;DHT22;21818;51.078;12.108;2023-07-08T07:50:35;22.50;82.70
35700;DHT22;21818;51.078;12.108;2023-07-08T07:53:01;22.50;82.60
35700;DHT22;21818;51.078;12.108;2023-07-08T07:55:26;22.50;82.50
35700;DHT22;21818;51.078;12.108;2023-07-08T07:57:52;22.50;82.40
35700;DHT22;21818;51.078;12.108;2023-07-08T08:00:18;22.60;82.30
35700;DHT22;21818;51.078;12.108;2023-07-08T08:02:43;22.60;82.20
35700;DHT22;21818;51.078;12.108;2023-07-08T08:05:10;22.60;82.10
35700;DHT22;21818;51.078;12.108;2023-07-08T08:07:36;22.60;81.90
35700;DHT22;21818;51.078;12.108;2023-07-08T08:10:02;22.60;81.90
35700;DHT22;21818;51.078;12.108;2023-07-08T08:12:28;22.60;82.30
35700;DHT22;21818;51.078;12.108;2023-07-08T08:14:54;22.70;81.70
35700;DHT22;21818;51.078;12.108;2023-07-08T08:17:20;22.70;81.60
35700;DHT22;21818;51.078;12.108;2023-07-08T08:19:45;22.70;81.50
35700;DHT22;21818;51.078;12.108;2023-07-08T08:22:11;22.70;81.30
35700;DHT22;21818;51.078;12.108;2023-07-08T08:24:37;22.70;81.30
35700;DHT22;21818;51.078;12.108;2023-07-08T08:27:02;22.70;81.20
35700;DHT22;21818;51.078;12.108;2023-07-08T08:29:28;22.70;81.00
35700;DHT22;21818;51.078;12.108;2023-07-08T08:31:54;22.80;80.90
35700;DHT22;21818;51.078;12.108;2023-07-08T08:34:20;22.80;80.80
35700;DHT22;21818;51.078;12.108;2023-07-08T08:36:45;22.80;80.70
35700;DHT22;21818;51.078;12.108;2023-07-08T08:39:11;22.80;80.60
35700;DHT22;21818;51.078;12.108;2023-07-08T08:41:38;22.80;80.50
35700;DHT22;21818;51.078;12.108;2023-07-08T08:44:10;22.90;80.50
35700;DHT22;21818;51.078;12.108;2023-07-08T08:46:54;22.90;80.50
35700;DHT22;21818;51.078;12.108;2023-07-08T08:49:32;22.90;80.40
35700;DHT22;21818;51.078;12.108;2023-07-08T08:52:01;22.90;80.30
35700;DHT22;21818;51.078;12.108;2023-07-08T08:54:26;22.90;80.40
35700;DHT22;21818;51.078;12.108;2023-07-08T08:59:47;22.90;80.30
35700;DHT22;21818;51.078;12.108;2023-07-08T09:04:46;22.90;80.20
35700;DHT22;21818;51.078;12.108;2023-07-08T09:07:17;23.00;80.20
35700;DHT22;21818;51.078;12.108;2023-07-08T09:10:04;23.00;80.20
35700;DHT22;21818;51.078;12.108;2023-07-08T09:12:32;23.00;80.10
35700;DHT22;21818;51.078;12.108;2023-07-08T09:14:58;23.00;80.10
35700;DHT22;21818;51.078;12.108;2023-07-08T09:17:31;23.00;80.00
35700;DHT22;21818;51.078;12.108;2023-07-08T09:20:04;23.00;80.00
35700;DHT22;21818;51.078;12.108;2023-07-08T09:22:41;23.00;80.00
35700;DHT22;21818;51.078;12.108;2023-07-08T09:27:41;23.10;79.90
35700;DHT22;21818;51.078;12.108;2023-07-08T09:30:16;23.10;79.80
35700;DHT22;21818;51.078;12.108;2023-07-08T09:32:42;23.10;79.80
35700;DHT22;21818;51.078;12.108;2023-07-08T09:35:11;23.10;79.80
35700;DHT22;21818;51.078;12.108;2023-07-08T09:37:45;23.10;79.70
35700;DHT22;21818;51.078;12.108;2023-07-08T09:40:17;23.10;79.70
35700;DHT22;21818;51.078;12.108;2023-07-08T09:42:45;23.10;79.60
35700;DHT22;21818;51.078;12.108;2023-07-08T09:45:27;23.20;79.60
35700;DHT22;21818;51.078;12.108;2023-07-08T09:47:55;23.20;79.60
35700;DHT22;21818;51.078;12.108;2023-07-08T09:50:28;23.20;79.50
35700;DHT22;21818;51.078;12.108;2023-07-08T09:52:56;23.20;79.50
35700;DHT22;21818;51.078;12.108;2023-07-08T09:55:30;23.20;79.40
35700;DHT22;21818;51.078;12.108;2023-07-08T09:57:58;23.20;79.40
35700;DHT22;21818;51.078;12.108;2023-07-08T10:00:39;23.20;79.80
35700;DHT22;21818;51.078;12.108;2023-07-08T10:03:34;23.20;79.30
35700;DHT22;21818;51.078;12.108;2023-07-08T10:06:05;23.20;79.20
35700;DHT22;21818;51.078;12.108;2023-07-08T10:08:41;23.20;79.20
35700;DHT22;21818;51.078;12.108;2023-07-08T10:11:29;23.30;79.20
35700;DHT22;21818;51.078;12.108;2023-07-08T10:14:11;23.30;79.10
35700;DHT22;21818;51.078;12.108;2023-07-08T10:16:38;23.30;79.10
35700;DHT22;21818;51.078;12.108;2023-07-08T10:19:17;23.30;79.00
35700;DHT22;21818;51.078;12.108;2023-07-08T10:22:10;23.30;79.00
35700;DHT22;21818;51.078;12.108;2023-07-08T10:24:58;23.30;78.90
35700;DHT22;21818;51.078;12.108;2023-07-08T10:27:44;23.30;78.90
35700;DHT22;21818;51.078;12.108;2023-07-08T10:30:27;23.40;78.90
35700;DHT22;21818;51.078;12.108;2023-07-08T10:33:20;23.40;78.90
35700;DHT22;21818;51.078;12.108;2023-07-08T10:38:55;23.40;78.80
35700;DHT22;21818;51.078;12.108;2023-07-08T10:43:59;23.40;78.70
35700;DHT22;21818;51.078;12.108;2023-07-08T10:49:42;23.40;78.50
35700;DHT22;21818;51.078;12.108;2023-07-08T10:55:17;23.40;78.50
35700;DHT22;21818;51.078;12.108;2023-07-08T11:06:47;23.50;78.30
35700;DHT22;21818;51.078;12.108;2023-07-08T11:09:21;23.50;78.20
35700;DHT22;21818;51.078;12.108;2023-07-08T11:14:57;23.50;78.00
35700;DHT22;21818;51.078;12.108;2023-07-08T11:17:41;23.50;78.00
35700;DHT22;21818;51.078;12.108;2023-07-08T11:21:00;23.60;78.10
35700;DHT22;21818;51.078;12.108;2023-07-08T11:23:25;23.60;78.00
35700;DHT22;21818;51.078;12.108;2023-07-08T11:25:54;23.60;78.00
35700;DHT22;21818;51.078;12.108;2023-07-08T11:28:24;23.60;77.90
35700;DHT22;21818;51.078;12.108;2023-07-08T11:30:51;23.60;77.90
35700;DHT22;21818;51.078;12.108;2023-07-08T11:33:21;23.60;77.80
35700;DHT22;21818;51.078;12.108;2023-07-08T11:35:51;23.60;77.80
35700;DHT22;21818;51.078;12.108;2023-07-08T11:38:20;23.60;77.70
35700;DHT22;21818;51.078;12.108;2023-07-08T11:41:19;23.70;77.80
35700;DHT22;21818;51.078;12.108;2023-07-08T11:43:58;23.60;77.60
35700;DHT22;21818;51.078;12.108;2023-07-08T11:46:29;23.70;77.60
35700;DHT22;21818;51.078;12.108;2023-07-08T11:49:10;23.70;77.60
35700;DHT22;21818;51.078;12.108;2023-07-08T11:51:38;23.70;77.50
35700;DHT22;21818;51.078;12.108;2023-07-08T11:54:12;23.70;77.50
35700;DHT22;21818;51.078;12.108;2023-07-08T11:59:30;23.70;77.40
35700;DHT22;21818;51.078;12.108;2023-07-08T12:02:17;23.70;77.30
35700;DHT22;21818;51.078;12.108;2023-07-08T12:05:01;23.80;77.30
35700;DHT22;21818;51.078;12.108;2023-07-08T12:07:41;23.80;77.30
35700;DHT22;21818;51.078;12.108;2023-07-08T12:12:53;23.80;77.10
35700;DHT22;21818;51.078;12.108;2023-07-08T12:15:24;23.80;77.10
35700;DHT22;21818;51.078;12.108;2023-07-08T12:17:52;23.80;77.10
35700;DHT22;21818;51.078;12.108;2023-07-08T12:20:25;23.80;77.00
35700;DHT22;21818;51.078;12.108;2023-07-08T12:22:52;23.90;77.00
35700;DHT22;21818;51.078;12.108;2023-07-08T12:25:21;23.90;77.00
35700;DHT22;21818;51.078;12.108;2023-07-08T12:27:47;23.90;77.00
35700;DHT22;21818;51.078;12.108;2023-07-08T12:30:14;23.90;77.00
35700;DHT22;21818;51.078;12.108;2023-07-08T12:32:41;23.90;76.90
35700;DHT22;21818;51.078;12.108;2023-07-08T12:35:28;23.90;76.90
35700;DHT22;21818;51.078;12.108;2023-07-08T12:37:59;23.90;76.80
35700;DHT22;21818;51.078;12.108;2023-07-08T12:40:27;23.90;76.70
35700;DHT22;21818;51.078;12.108;2023-07-08T12:42:54;23.90;76.70
35700;DHT22;21818;51.078;12.108;2023-07-08T12:45:22;23.90;76.60
35700;DHT22;21818;51.078;12.108;2023-07-08T12:47:49;24.00;76.70
35700;DHT22;21818;51.078;12.108;2023-07-08T12:50:15;24.00;76.60
35700;DHT22;21818;51.078;12.108;2023-07-08T12:52:44;24.00;76.60
35700;DHT22;21818;51.078;12.108;2023-07-08T12:55:12;24.00;76.50
35700;DHT22;21818;51.078;12.108;2023-07-08T12:57:40;24.00;76.50
35700;DHT22;21818;51.078;12.108;2023-07-08T13:00:15;24.00;76.40
35700;DHT22;21818;51.078;12.108;2023-07-08T13:02:44;24.00;76.40
35700;DHT22;21818;51.078;12.108;2023-07-08T13:05:10;24.10;76.40
35700;DHT22;21818;51.078;12.108;2023-07-08T13:07:39;24.10;76.30
35700;DHT22;21818;51.078;12.108;2023-07-08T13:10:07;24.10;76.20
35700;DHT22;21818;51.078;12.108;2023-07-08T13:12:36;24.10;76.20
35700;DHT22;21818;51.078;12.108;2023-07-08T13:15:04;24.10;76.20
35700;DHT22;21818;51.078;12.108;2023-07-08T13:17:31;24.20;76.70
35700;DHT22;21818;51.078;12.108;2023-07-08T13:19:57;24.20;76.10
35700;DHT22;21818;51.078;12.108;2023-07-08T13:22:23;24.30;76.10
35700;DHT22;21818;51.078;12.108;2023-07-08T13:24:59;24.30;76.10
35700;DHT22;21818;51.078;12.108;2023-07-08T13:27:25;24.30;76.10
35700;DHT22;21818;51.078;12.108;2023-07-08T13:29:55;24.30;76.10
35700;DHT22;21818;51.078;12.108;2023-07-08T13:32:29;24.30;76.00
35700;DHT22;21818;51.078;12.108;2023-07-08T13:34:56;24.30;76.00
35700;DHT22;21818;51.078;12.108;2023-07-08T13:37:22;24.30;76.00
35700;DHT22;21818;51.078;12.108;2023-07-08T13:39:53;24.30;75.90
35700;DHT22;21818;51.078;12.108;2023-07-08T13:42:19;24.40;75.90
35700;DHT22;21818;51.078;12.108;2023-07-08T13:44:45;24.40;75.90
35700;DHT22;21818;51.078;12.108;2023-07-08T13:47:28;24.40;75.80
35700;DHT22;21818;51.078;12.108;2023-07-08T13:50:00;24.40;75.70
35700;DHT22;21818;51.078;12.108;2023-07-08T13:52:29;24.50;75.70
35700;DHT22;21818;51.078;12.108;2023-07-08T13:55:01;24.50;75.70
35700;DHT22;21818;51.078;12.108;2023-07-08T13:57:38;24.50;75.60
35700;DHT22;21818;51.078;12.108;2023-07-08T14:00:05;24.50;75.60
35700;DHT22;21818;51.078;12.108;2023-07-08T14:02:33;24.50;75.60
35700;DHT22;21818;51.078;12.108;2023-07-08T14:05:00;24.50;75.50
35700;DHT22;21818;51.078;12.108;2023-07-08T14:07:28;24.50;75.40
35700;DHT22;21818;51.078;12.108;2023-07-08T14:09:54;24.60;75.50
35700;DHT22;21818;51.078;12.108;2023-07-08T14:12:21;24.60;75.40
35700;DHT22;21818;51.078;12.108;2023-07-08T14:14:47;24.60;75.30
35700;DHT22;21818;51.078;12.108;2023-07-08T14:17:17;24.60;75.30
35700;DHT22;21818;51.078;12.108;2023-07-08T14:19:44;24.60;75.30
35700;DHT22;21818;51.078;12.108;2023-07-08T14:22:26;24.70;75.20
35700;DHT22;21818;51.078;12.108;2023-07-08T14:24:52;24.70;75.10
35700;DHT22;21818;51.078;12.108;2023-07-08T14:27:18;24.70;75.10
35700;DHT22;21818;51.078;12.108;2023-07-08T14:29:46;24.70;75.00
35700;DHT22;21818;51.078;12.108;2023-07-08T14:32:15;24.70;75.00
35700;DHT22;21818;51.078;12.108;2023-07-08T14:34:42;24.80;74.90
35700;DHT22;21818;51.078;12.108;2023-07-08T14:37:16;24.80;74.90
35700;DHT22;21818;51.078;12.108;2023-07-08T14:39:46;24.80;74.80
35700;DHT22;21818;51.078;12.108;2023-07-08T14:42:13;24.80;74.80
35700;DHT22;21818;51.078;12.108;2023-07-08T14:44:40;24.80;74.80
35700;DHT22;21818;51.078;12.108;2023-07-08T14:47:15;24.80;74.70
35700;DHT22;21818;51.078;12.108;2023-07-08T14:49:40;24.90;74.70
35700;DHT22;21818;51.078;12.108;2023-07-08T14:52:07;24.90;74.70
35700;DHT22;21818;51.078;12.108;2023-07-08T14:54:33;24.90;74.60
35700;DHT22;21818;51.078;12.108;2023-07-08T14:56:59;24.90;74.60
35700;DHT22;21818;51.078;12.108;2023-07-08T14:59:28;25.00;74.60
35700;DHT22;21818;51.078;12.108;2023-07-08T15:01:55;25.00;75.00
35700;DHT22;21818;51.078;12.108;2023-07-08T15:04:21;25.00;74.40
35700;DHT22;21818;51.078;12.108;2023-07-08T15:06:47;25.00;74.40
35700;DHT22;21818;51.078;12.108;2023-07-08T15:09:14;25.00;74.30
35700;DHT22;21818;51.078;12.108;2023-07-08T15:11:42;25.10;74.30
35700;DHT22;21818;51.078;12.108;2023-07-08T15:14:22;25.10;74.20
35700;DHT22;21818;51.078;12.108;2023-07-08T15:16:50;25.10;74.20
35700;DHT22;21818;51.078;12.108;2023-07-08T15:19:16;25.10;74.20
35700;DHT22;21818;51.078;12.108;2023-07-08T15:21:42;25.10;74.60
35700;DHT22;21818;51.078;12.108;2023-07-08T15:24:10;25.20;74.10
35700;DHT22;21818;51.078;12.108;2023-07-08T15:26:40;25.20;74.00
35700;DHT22;21818;51.078;12.108;2023-07-08T15:29:13;25.20;74.00
35700;DHT22;21818;51.078;12.108;2023-07-08T15:31:40;25.20;73.90
35700;DHT22;21818;51.078;12.108;2023-07-08T15:34:20;25.20;73.90
35700;DHT22;21818;51.078;12.108;2023-07-08T15:36:46;25.20;73.80
35700;DHT22;21818;51.078;12.108;2023-07-08T15:39:11;25.30;73.90
35700;DHT22;21818;51.078;12.108;2023-07-08T15:41:39;25.30;73.80
35700;DHT22;21818;51.078;12.108;2023-07-08T15:44:04;25.30;73.70
35700;DHT22;21818;51.078;12.108;2023-07-08T15:46:35;25.30;73.70
35700;DHT22;21818;51.078;12.108;2023-07-08T15:49:04;25.40;73.70
35700;DHT22;21818;51.078;12.108;2023-07-08T15:51:34;25.40;73.60
35700;DHT22;21818;51.078;12.108;2023-07-08T15:54:00;25.40;73.50
35700;DHT22;21818;51.078;12.108;2023-07-08T15:56:25;25.40;73.50
35700;DHT22;21818;51.078;12.108;2023-07-08T15:58:51;25.40;73.40
35700;DHT22;21818;51.078;12.108;2023-07-08T16:01:23;25.50;73.40
35700;DHT22;21818;51.078;12.108;2023-07-08T16:03:49;25.50;73.30
35700;DHT22;21818;51.078;12.108;2023-07-08T16:06:15;25.50;73.20
35700;DHT22;21818;51.078;12.108;2023-07-08T16:08:43;25.50;73.20